sensor_id;sensor_type;location;lat;lon;timestamp;temperature;humidity
8832;DHT22;4452;50.756;4.472;2024-02-21T00:02:11;8.20;99.90
8832;DHT22;4452;50.756;4.472;2024-02-21T00:04:37;8.20;99.90
8832;DHT22;4452;50.756;4.472;2024-02-21T00:07:04;8.40;99.90
8832;DHT22;4452;50.756;4.472;2024-02-21T00:09:30;8.30;99.90
8832;DHT22;4452;50.756;4.472;2024-02-21T00:11:56;8.30;99.90
8832;DHT22;4452;50.756;4.472;2024-02-21T00:14:21;8.20;99.90
8832;DHT22;4452;50.756;4.472;2024-02-21T00:16:47;8.30;99.90
8832;DHT22;4452;50.756;4.472;2024-02-21T00:19:13;8.50;99.90
8832;DHT22;4452;50.756;4.472;2024-02-21T00:21:40;8.70;99.90
8832;DHT22;4452;50.756;4.472;2024-02-21T00:24:06;8.30;99.90
8832;DHT22;4452;50.756;4.472;2024-02-21T00:26:31;8.30;99.90
8832;DHT22;4452;50.756;4.472;2024-02-21T00:28:57;8.40;99.90
8832;DHT22;4452;50.756;4.472;2024-02-21T00:31:23;8.40;99.90
8832;DHT22;4452;50.756;4.472;2024-02-21T00:33:48;8.30;99.90
8832;DHT22;4452;50.756;4.472;2024-02-21T00:36:14;8.30;99.90
8832;DHT22;4452;50.756;4.472;2024-02-21T00:38:40;8.70;99.90
8832;DHT22;4452;50.756;4.472;2024-02-21T00:41:06;8.60;99.90
8832;DHT22;4452;50.756;4.472;2024-02-21T00:43:32;8.20;99.90
8832;DHT22;4452;50.756;4.472;2024-02-21T00:45:58;8.50;99.90
8832;DHT22;4452;50.756;4.472;2024-02-21T00:48:23;8.70;99.90
8832;DHT22;4452;50.756;4.472;2024-02-21T00:50:49;8.20;99.90
8832;DHT22;4452;50.756;4.472;2024-02-21T00:53:15;8.40;99.90
8832;DHT22;4452;50.756;4.472;2024-02-21T00:55:40;8.60;99.90
8832;DHT22;4452;50.756;4.472;2024-02-21T00:58:06;8.20;99.90
8832;DHT22;4452;50.756;4.472;2024-02-21T01:00:32;8.70;99.90
8832;DHT22;4452;50.756;4.472;2024-02-21T01:02:57;8.30;99.90
8832;DHT22;4452;50.756;4.472;2024-02-21T01:05:23;8.60;99.90
8832;DHT22;4452;50.756;4.472;2024-02-21T01:07:49;8.30;99.90
8832;DHT22;4452;50.756;4.472;2024-02-21T01:10:14;8.30;99.90
8832;DHT22;4452;50.756;4.472;2024-02-21T01:12:40;8.30;99.90
8832;DHT22;4452;50.756;4.472;2024-02-21T01:15:06;8.60;99.90
8832;DHT22;4452;50.756;4.472;2024-02-21T01:17:32;8.30;99.90
8832;DHT22;4452;50.756;4.472;2024-02-21T01:19:57;8.30;99.90
8832;DHT22;4452;50.756;4.472;2024-02-21T01:22:23;8.50;99.90
8832;DHT22;4452;50.756;4.472;2024-02-21T01:24:49;8.70;99.90
8832;DHT22;4452;50.756;4.472;2024-02-21T01:27:14;8.70;99.90
8832;DHT22;4452;50.756;4.472;2024-02-21T01:29:40;8.30;99.90
8832;DHT22;4452;50.756;4.472;2024-02-21T01:32:06;8.70;99.90
8832;DHT22;4452;50.756;4.472;2024-02-21T01:34:32;8.20;99.90
8832;DHT22;4452;50.756;4.472;2024-02-21T01:36:57;8.30;99.90
8832;DHT22;4452;50.756;4.472;2024-02-21T01:39:24;8.60;99.90
8832;DHT22;4452;50.756;4.472;2024-02-21T01:41:50;8.30;99.90
8832;DHT22;4452;50.756;4.472;2024-02-21T01:44:15;8.30;99.90
8832;DHT22;4452;50.756;4.472;2024-02-21T01:46:41;8.20;99.90
8832;DHT22;4452;50.756;4.472;2024-02-21T01:49:07;8.20;99.90
8832;DHT22;4452;50.756;4.472;2024-02-21T01:51:33;8.20;99.90
8832;DHT22;4452;50.756;4.472;2024-02-21T01:53:59;8.10;99.90
8832;DHT22;4452;50.756;4.472;2024-02-21T01:56:25;8.20;99.90
8832;DHT22;4452;50.756;4.472;2024-02-21T01:58:51;8.40;99.90
8832;DHT22;4452;50.756;4.472;2024-02-21T02:01:17;8.20;99.90
8832;DHT22;4452;50.756;4.472;2024-02-21T02:03:45;8.60;99.90
8832;DHT22;4452;50.756;4.472;2024-02-21T02:06:10;8.40;99.90
8832;DHT22;4452;50.756;4.472;2024-02-21T02:08:36;8.20;99.90
8832;DHT22;4452;50.756;4.472;2024-02-21T02:11:03;8.00;99.90
8832;DHT22;4452;50.756;4.472;2024-02-21T02:13:29;8.20;99.90
8832;DHT22;4452;50.756;4.472;2024-02-21T02:15:54;8.60;99.90
8832;DHT22;4452;50.756;4.472;2024-02-21T02:18:20;8.20;99.90
8832;DHT22;4452;50.756;4.472;2024-02-21T02:20:47;8.10;99.90
8832;DHT22;4452;50.756;4.472;2024-02-21T02:23:20;8.40;99.90
8832;DHT22;4452;50.756;4.472;2024-02-21T02:25:46;8.20;99.90
8832;DHT22;4452;50.756;4.472;2024-02-21T02:28:15;8.20;99.90
8832;DHT22;4452;50.756;4.472;2024-02-21T02:30:40;8.20;99.90
8832;DHT22;4452;50.756;4.472;2024-02-21T02:33:06;8.20;99.90
8832;DHT22;4452;50.756;4.472;2024-02-21T02:35:32;8.30;99.90
8832;DHT22;4452;50.756;4.472;2024-02-21T02:38:00;8.20;99.90
8832;DHT22;4452;50.756;4.472;2024-02-21T02:40:26;8.20;99.90
8832;DHT22;4452;50.756;4.472;2024-02-21T02:42:52;8.20;99.90
8832;DHT22;4452;50.756;4.472;2024-02-21T02:45:21;8.20;99.90
8832;DHT22;4452;50.756;4.472;2024-02-21T02:47:47;8.20;99.90
8832;DHT22;4452;50.756;4.472;2024-02-21T02:50:13;8.20;99.90
8832;DHT22;4452;50.756;4.472;2024-02-21T02:52:40;8.20;99.90
8832;DHT22;4452;50.756;4.472;2024-02-21T02:55:06;8.40;99.90
8832;DHT22;4452;50.756;4.472;2024-02-21T02:57:32;8.20;99.90
8832;DHT22;4452;50.756;4.472;2024-02-21T02:59:58;8.30;99.90
8832;DHT22;4452;50.756;4.472;2024-02-21T03:02:24;8.30;99.90
8832;DHT22;4452;50.756;4.472;2024-02-21T03:04:52;8.30;99.90
8832;DHT22;4452;50.756;4.472;2024-02-21T03:07:20;8.20;99.90
8832;DHT22;4452;50.756;4.472;2024-02-21T03:09:45;8.30;99.90
8832;DHT22;4452;50.756;4.472;2024-02-21T03:12:11;8.20;99.90
8832;DHT22;4452;50.756;4.472;2024-02-21T03:14:37;8.30;99.90
8832;DHT22;4452;50.756;4.472;2024-02-21T03:17:03;8.20;99.90
8832;DHT22;4452;50.756;4.472;2024-02-21T03:19:29;8.20;99.90
8832;DHT22;4452;50.756;4.472;2024-02-21T03:21:55;8.20;99.90
8832;DHT22;4452;50.756;4.472;2024-02-21T03:24:21;8.20;99.90
8832;DHT22;4452;50.756;4.472;2024-02-21T03:26:47;8.50;99.90
8832;DHT22;4452;50.756;4.472;2024-02-21T03:29:15;8.40;99.90
8832;DHT22;4452;50.756;4.472;2024-02-21T03:31:41;8.30;99.90
8832;DHT22;4452;50.756;4.472;2024-02-21T03:34:07;8.10;99.90
8832;DHT22;4452;50.756;4.472;2024-02-21T03:36:33;8.10;99.90
8832;DHT22;4452;50.756;4.472;2024-02-21T03:38:59;8.40;99.90
8832;DHT22;4452;50.756;4.472;2024-02-21T03:41:26;8.10;99.90
8832;DHT22;4452;50.756;4.472;2024-02-21T03:43:52;8.20;99.90
8832;DHT22;4452;50.756;4.472;2024-02-21T03:46:18;8.10;99.90
8832;DHT22;4452;50.756;4.472;2024-02-21T03:48:43;8.30;99.90
8832;DHT22;4452;50.756;4.472;2024-02-21T03:51:09;8.40;99.90
8832;DHT22;4452;50.756;4.472;2024-02-21T03:53:35;8.10;99.90
8832;DHT22;4452;50.756;4.472;2024-02-21T03:56:01;8.10;99.90
8832;DHT22;4452;50.756;4.472;2024-02-21T03:58:29;8.10;99.90
8832;DHT22;4452;50.756;4.472;2024-02-21T04:00:55;8.30;99.90
8832;DHT22;4452;50.756;4.472;2024-02-21T04:03:21;8.40;99.90
8832;DHT22;4452;50.756;4.472;2024-02-21T04:05:47;8.10;99.90
8832;DHT22;4452;50.756;4.472;2024-02-21T04:08:13;8.10;99.90
8832;DHT22;4452;50.756;4.472;2024-02-21T04:10:39;8.20;99.90
8832;DHT22;4452;50.756;4.472;2024-02-21T04:13:06;8.30;99.90
8832;DHT22;4452;50.756;4.472;2024-02-21T04:15:32;8.20;99.90
8832;DHT22;4452;50.756;4.472;2024-02-21T04:17:58;8.10;99.90
8832;DHT22;4452;50.756;4.472;2024-02-21T04:20:23;8.00;99.90
8832;DHT22;4452;50.756;4.472;2024-02-21T04:22:49;8.20;99.90
8832;DHT22;4452;50.756;4.472;2024-02-21T04:25:15;8.10;99.90
8832;DHT22;4452;50.756;4.472;2024-02-21T04:27:41;8.10;99.90
8832;DHT22;4452;50.756;4.472;2024-02-21T04:30:07;8.30;99.90
8832;DHT22;4452;50.756;4.472;2024-02-21T04:32:33;8.10;99.90
8832;DHT22;4452;50.756;4.472;2024-02-21T04:34:59;8.10;99.90
8832;DHT22;4452;50.756;4.472;2024-02-21T04:37:25;8.10;99.90
8832;DHT22;4452;50.756;4.472;2024-02-21T04:39:50;8.30;99.90
8832;DHT22;4452;50.756;4.472;2024-02-21T04:42:16;8.10;99.90
8832;DHT22;4452;50.756;4.472;2024-02-21T04:44:42;8.30;99.90
8832;DHT22;4452;50.756;4.472;2024-02-21T04:47:08;8.20;99.90
8832;DHT22;4452;50.756;4.472;2024-02-21T04:49:34;8.00;99.90
8832;DHT22;4452;50.756;4.472;2024-02-21T04:52:00;8.10;99.90
8832;DHT22;4452;50.756;4.472;2024-02-21T04:54:26;8.00;99.90
8832;DHT22;4452;50.756;4.472;2024-02-21T04:56:52;8.30;99.90
8832;DHT22;4452;50.756;4.472;2024-02-21T04:59:18;8.00;99.90
8832;DHT22;4452;50.756;4.472;2024-02-21T05:01:43;8.10;99.90
8832;DHT22;4452;50.756;4.472;2024-02-21T05:04:09;8.10;99.90
8832;DHT22;4452;50.756;4.472;2024-02-21T05:06:39;8.20;99.90
8832;DHT22;4452;50.756;4.472;2024-02-21T05:09:05;8.10;99.90
8832;DHT22;4452;50.756;4.472;2024-02-21T05:11:31;8.40;99.90
8832;DHT22;4452;50.756;4.472;2024-02-21T05:13:56;8.10;99.90
8832;DHT22;4452;50.756;4.472;2024-02-21T05:16:22;8.20;99.90
8832;DHT22;4452;50.756;4.472;2024-02-21T05:18:48;8.10;99.90
8832;DHT22;4452;50.756;4.472;2024-02-21T05:21:14;8.20;99.90
8832;DHT22;4452;50.756;4.472;2024-02-21T05:23:39;8.30;99.90
8832;DHT22;4452;50.756;4.472;2024-02-21T05:26:08;8.50;99.90
8832;DHT22;4452;50.756;4.472;2024-02-21T05:28:34;8.30;99.90
8832;DHT22;4452;50.756;4.472;2024-02-21T05:31:00;8.20;99.90
8832;DHT22;4452;50.756;4.472;2024-02-21T05:33:26;8.10;99.90
8832;DHT22;4452;50.756;4.472;2024-02-21T05:35:52;8.30;99.90
8832;DHT22;4452;50.756;4.472;2024-02-21T05:38:18;8.00;99.90
8832;DHT22;4452;50.756;4.472;2024-02-21T05:40:47;8.10;99.90
8832;DHT22;4452;50.756;4.472;2024-02-21T05:43:13;8.10;99.90
8832;DHT22;4452;50.756;4.472;2024-02-21T05:45:39;8.00;99.90
8832;DHT22;4452;50.756;4.472;2024-02-21T05:48:05;8.10;99.90
8832;DHT22;4452;50.756;4.472;2024-02-21T05:50:31;8.10;99.90
8832;DHT22;4452;50.756;4.472;2024-02-21T05:52:57;8.40;99.90
8832;DHT22;4452;50.756;4.472;2024-02-21T05:55:24;8.40;99.90
8832;DHT22;4452;50.756;4.472;2024-02-21T05:57:49;8.10;99.90
8832;DHT22;4452;50.756;4.472;2024-02-21T06:00:15;8.10;99.90
8832;DHT22;4452;50.756;4.472;2024-02-21T06:02:41;8.10;99.90
8832;DHT22;4452;50.756;4.472;2024-02-21T06:05:07;8.40;99.90
8832;DHT22;4452;50.756;4.472;2024-02-21T06:07:34;8.10;99.90
8832;DHT22;4452;50.756;4.472;2024-02-21T06:10:03;8.10;99.90
8832;DHT22;4452;50.756;4.472;2024-02-21T06:12:29;8.10;99.90
8832;DHT22;4452;50.756;4.472;2024-02-21T06:14:55;8.30;99.90
8832;DHT22;4452;50.756;4.472;2024-02-21T06:17:20;8.10;99.90
8832;DHT22;4452;50.756;4.472;2024-02-21T06:19:46;8.30;99.90
8832;DHT22;4452;50.756;4.472;2024-02-21T06:22:12;8.00;99.90
8832;DHT22;4452;50.756;4.472;2024-02-21T06:24:38;8.10;99.90
8832;DHT22;4452;50.756;4.472;2024-02-21T06:27:04;8.00;99.90
8832;DHT22;4452;50.756;4.472;2024-02-21T06:29:33;8.00;99.90
8832;DHT22;4452;50.756;4.472;2024-02-21T06:31:59;7.90;99.90
8832;DHT22;4452;50.756;4.472;2024-02-21T06:34:25;7.90;99.90
8832;DHT22;4452;50.756;4.472;2024-02-21T06:36:51;7.90;99.90
8832;DHT22;4452;50.756;4.472;2024-02-21T06:39:17;7.90;99.90
8832;DHT22;4452;50.756;4.472;2024-02-21T06:41:43;7.80;99.90
8832;DHT22;4452;50.756;4.472;2024-02-21T06:44:09;8.30;99.90
8832;DHT22;4452;50.756;4.472;2024-02-21T06:46:35;8.30;99.90
8832;DHT22;4452;50.756;4.472;2024-02-21T06:49:01;7.90;99.90
8832;DHT22;4452;50.756;4.472;2024-02-21T06:51:29;8.00;99.90
8832;DHT22;4452;50.756;4.472;2024-02-21T06:53:55;8.20;99.90
8832;DHT22;4452;50.756;4.472;2024-02-21T06:56:20;8.00;99.90
8832;DHT22;4452;50.756;4.472;2024-02-21T06:58:46;8.00;99.90
8832;DHT22;4452;50.756;4.472;2024-02-21T07:01:12;8.10;99.90
8832;DHT22;4452;50.756;4.472;2024-02-21T07:03:37;7.70;99.90
8832;DHT22;4452;50.756;4.472;2024-02-21T07:06:03;7.70;99.90
8832;DHT22;4452;50.756;4.472;2024-02-21T07:08:29;7.70;99.90
8832;DHT22;4452;50.756;4.472;2024-02-21T07:10:55;7.80;99.90
8832;DHT22;4452;50.756;4.472;2024-02-21T07:13:20;7.80;99.90
8832;DHT22;4452;50.756;4.472;2024-02-21T07:15:48;7.80;99.90
8832;DHT22;4452;50.756;4.472;2024-02-21T07:18:13;7.70;99.90
8832;DHT22;4452;50.756;4.472;2024-02-21T07:20:39;7.80;99.90
8832;DHT22;4452;50.756;4.472;2024-02-21T07:23:10;7.70;99.90
8832;DHT22;4452;50.756;4.472;2024-02-21T07:25:35;7.70;99.90
8832;DHT22;4452;50.756;4.472;2024-02-21T07:28:01;7.80;99.90
8832;DHT22;4452;50.756;4.472;2024-02-21T07:30:26;7.70;99.90
8832;DHT22;4452;50.756;4.472;2024-02-21T07:32:52;7.90;99.90
8832;DHT22;4452;50.756;4.472;2024-02-21T07:35:18;7.80;99.90
8832;DHT22;4452;50.756;4.472;2024-02-21T07:37:44;7.80;99.90
8832;DHT22;4452;50.756;4.472;2024-02-21T07:40:13;7.80;99.90
8832;DHT22;4452;50.756;4.472;2024-02-21T07:42:40;7.80;99.90
8832;DHT22;4452;50.756;4.472;2024-02-21T07:45:07;8.10;99.90
8832;DHT22;4452;50.756;4.472;2024-02-21T07:47:32;7.80;99.90
8832;DHT22;4452;50.756;4.472;2024-02-21T07:49:58;8.00;99.90
8832;DHT22;4452;50.756;4.472;2024-02-21T07:52:24;8.00;99.90
8832;DHT22;4452;50.756;4.472;2024-02-21T07:54:50;7.90;99.90
8832;DHT22;4452;50.756;4.472;2024-02-21T07:57:16;7.90;99.90
8832;DHT22;4452;50.756;4.472;2024-02-21T07:59:41;7.80;99.90
8832;DHT22;4452;50.756;4.472;2024-02-21T08:02:07;8.20;99.90
8832;DHT22;4452;50.756;4.472;2024-02-21T08:04:33;7.90;99.90
8832;DHT22;4452;50.756;4.472;2024-02-21T08:06:59;7.90;99.90
8832;DHT22;4452;50.756;4.472;2024-02-21T08:09:29;8.20;99.90
8832;DHT22;4452;50.756;4.472;2024-02-21T08:11:55;8.00;99.90
8832;DHT22;4452;50.756;4.472;2024-02-21T08:14:21;8.10;99.90
8832;DHT22;4452;50.756;4.472;2024-02-21T08:16:47;8.30;99.90
8832;DHT22;4452;50.756;4.472;2024-02-21T08:19:13;8.20;99.90
8832;DHT22;4452;50.756;4.472;2024-02-21T08:21:38;7.80;99.90
8832;DHT22;4452;50.756;4.472;2024-02-21T08:24:04;8.20;99.90
8832;DHT22;4452;50.756;4.472;2024-02-21T08:26:30;7.90;99.90
8832;DHT22;4452;50.756;4.472;2024-02-21T08:28:57;8.30;99.90
8832;DHT22;4452;50.756;4.472;2024-02-21T08:31:26;8.00;99.90
8832;DHT22;4452;50.756;4.472;2024-02-21T08:34:00;8.40;99.90
8832;DHT22;4452;50.756;4.472;2024-02-21T08:36:35;8.00;99.90
8832;DHT22;4452;50.756;4.472;2024-02-21T08:39:02;8.00;99.90
8832;DHT22;4452;50.756;4.472;2024-02-21T08:41:33;8.00;99.90
8832;DHT22;4452;50.756;4.472;2024-02-21T08:43:59;8.00;99.90
8832;DHT22;4452;50.756;4.472;2024-02-21T08:46:24;8.00;99.90
8832;DHT22;4452;50.756;4.472;2024-02-21T08:48:51;8.20;99.90
8832;DHT22;4452;50.756;4.472;2024-02-21T08:51:17;8.10;99.90
8832;DHT22;4452;50.756;4.472;2024-02-21T08:53:44;8.30;99.90
8832;DHT22;4452;50.756;4.472;2024-02-21T08:56:09;8.10;99.90
8832;DHT22;4452;50.756;4.472;2024-02-21T08:58:36;8.20;99.90
8832;DHT22;4452;50.756;4.472;2024-02-21T09:01:03;8.10;99.90
8832;DHT22;4452;50.756;4.472;2024-02-21T09:03:33;8.20;99.90
8832;DHT22;4452;50.756;4.472;2024-02-21T09:05:59;8.30;99.90
8832;DHT22;4452;50.756;4.472;2024-02-21T09:08:26;8.30;99.90
8832;DHT22;4452;50.756;4.472;2024-02-21T09:10:52;8.30;99.90
8832;DHT22;4452;50.756;4.472;2024-02-21T09:13:18;8.30;99.90
8832;DHT22;4452;50.756;4.472;2024-02-21T09:15:44;8.70;99.90
8832;DHT22;4452;50.756;4.472;2024-02-21T09:18:09;8.50;99.90
8832;DHT22;4452;50.756;4.472;2024-02-21T09:20:35;8.60;99.90
8832;DHT22;4452;50.756;4.472;2024-02-21T09:23:01;8.30;99.90
8832;DHT22;4452;50.756;4.472;2024-02-21T09:25:27;8.50;99.90
8832;DHT22;4452;50.756;4.472;2024-02-21T09:27:54;8.70;99.90
8832;DHT22;4452;50.756;4.472;2024-02-21T09:30:20;8.60;99.90
8832;DHT22;4452;50.756;4.472;2024-02-21T09:32:45;8.60;99.90
8832;DHT22;4452;50.756;4.472;2024-02-21T09:35:11;8.80;99.90
8832;DHT22;4452;50.756;4.472;2024-02-21T09:37:38;8.80;99.90
8832;DHT22;4452;50.756;4.472;2024-02-21T09:40:05;9.10;99.90
8832;DHT22;4452;50.756;4.472;2024-02-21T09:42:41;8.80;99.90
8832;DHT22;4452;50.756;4.472;2024-02-21T09:45:27;8.90;99.90
8832;DHT22;4452;50.756;4.472;2024-02-21T09:50:36;8.90;99.90
8832;DHT22;4452;50.756;4.472;2024-02-21T09:53:04;8.90;99.90
8832;DHT22;4452;50.756;4.472;2024-02-21T09:55:33;8.90;99.90
8832;DHT22;4452;50.756;4.472;2024-02-21T09:58:01;9.00;99.90
8832;DHT22;4452;50.756;4.472;2024-02-21T10:00:27;9.10;99.90
8832;DHT22;4452;50.756;4.472;2024-02-21T10:02:54;9.20;99.90
8832;DHT22;4452;50.756;4.472;2024-02-21T10:05:19;8.90;99.90
8832;DHT22;4452;50.756;4.472;2024-02-21T10:07:45;9.30;99.90
8832;DHT22;4452;50.756;4.472;2024-02-21T10:10:11;9.50;99.90
8832;DHT22;4452;50.756;4.472;2024-02-21T10:12:56;9.40;99.90
8832;DHT22;4452;50.756;4.472;2024-02-21T10:15:24;9.30;99.90
8832;DHT22;4452;50.756;4.472;2024-02-21T10:17:58;9.50;99.90
8832;DHT22;4452;50.756;4.472;2024-02-21T10:20:24;9.40;99.90
8832;DHT22;4452;50.756;4.472;2024-02-21T10:23:03;9.50;99.90
8832;DHT22;4452;50.756;4.472;2024-02-21T10:25:36;9.30;99.90
8832;DHT22;4452;50.756;4.472;2024-02-21T10:28:07;9.40;99.90
8832;DHT22;4452;50.756;4.472;2024-02-21T10:30:33;9.60;99.90
8832;DHT22;4452;50.756;4.472;2024-02-21T10:32:58;9.50;99.90
8832;DHT22;4452;50.756;4.472;2024-02-21T10:35:29;9.60;99.90
8832;DHT22;4452;50.756;4.472;2024-02-21T10:37:57;9.60;99.90
8832;DHT22;4452;50.756;4.472;2024-02-21T10:40:29;9.60;99.90
8832;DHT22;4452;50.756;4.472;2024-02-21T10:43:01;9.70;99.90
8832;DHT22;4452;50.756;4.472;2024-02-21T10:45:36;9.80;99.90
8832;DHT22;4452;50.756;4.472;2024-02-21T10:48:09;9.70;99.90
8832;DHT22;4452;50.756;4.472;2024-02-21T10:51:03;9.70;99.90
8832;DHT22;4452;50.756;4.472;2024-02-21T10:56:31;9.70;99.90
8832;DHT22;4452;50.756;4.472;2024-02-21T10:59:01;9.80;99.90
8832;DHT22;4452;50.756;4.472;2024-02-21T11:01:28;10.00;99.90
8832;DHT22;4452;50.756;4.472;2024-02-21T11:03:56;9.90;99.90
8832;DHT22;4452;50.756;4.472;2024-02-21T11:06:22;9.90;99.90
8832;DHT22;4452;50.756;4.472;2024-02-21T11:09:05;9.80;99.90
8832;DHT22;4452;50.756;4.472;2024-02-21T11:14:20;9.90;99.90
8832;DHT22;4452;50.756;4.472;2024-02-21T11:16:47;9.90;99.90
8832;DHT22;4452;50.756;4.472;2024-02-21T11:19:24;10.10;99.90
8832;DHT22;4452;50.756;4.472;2024-02-21T11:21:51;10.10;99.90
8832;DHT22;4452;50.756;4.472;2024-02-21T11:24:30;10.30;99.90
8832;DHT22;4452;50.756;4.472;2024-02-21T11:27:15;10.00;99.90
8832;DHT22;4452;50.756;4.472;2024-02-21T11:29:58;10.10;99.90
8832;DHT22;4452;50.756;4.472;2024-02-21T11:32:25;10.10;99.90
8832;DHT22;4452;50.756;4.472;2024-02-21T11:34:59;10.00;99.90
8832;DHT22;4452;50.756;4.472;2024-02-21T11:37:33;10.00;99.90
8832;DHT22;4452;50.756;4.472;2024-02-21T11:40:00;9.90;99.90
8832;DHT22;4452;50.756;4.472;2024-02-21T11:42:27;9.80;99.90
8832;DHT22;4452;50.756;4.472;2024-02-21T11:44:53;9.90;99.90
8832;DHT22;4452;50.756;4.472;2024-02-21T11:47:22;10.00;99.90
8832;DHT22;4452;50.756;4.472;2024-02-21T11:49:48;10.00;99.90
8832;DHT22;4452;50.756;4.472;2024-02-21T11:52:25;9.90;99.90
8832;DHT22;4452;50.756;4.472;2024-02-21T11:54:51;9.90;99.90
8832;DHT22;4452;50.756;4.472;2024-02-21T11:57:21;9.90;99.90
8832;DHT22;4452;50.756;4.472;2024-02-21T11:59:47;9.90;99.90
8832;DHT22;4452;50.756;4.472;2024-02-21T12:02:14;9.90;99.90
8832;DHT22;4452;50.756;4.472;2024-02-21T12:04:41;9.90;99.90
8832;DHT22;4452;50.756;4.472;2024-02-21T12:07:14;9.80;99.90
8832;DHT22;4452;50.756;4.472;2024-02-21T12:09:42;9.80;99.90
8832;DHT22;4452;50.756;4.472;2024-02-21T12:12:11;9.80;99.90
8832;DHT22;4452;50.756;4.472;2024-02-21T12:14:38;9.80;99.90
8832;DHT22;4452;50.756;4.472;2024-02-21T12:17:07;9.80;99.90
8832;DHT22;4452;50.756;4.472;2024-02-21T12:19:34;9.80;99.90
8832;DHT22;4452;50.756;4.472;2024-02-21T12:22:00;9.90;99.90
8832;DHT22;4452;50.756;4.472;2024-02-21T12:24:27;9.90;99.90
8832;DHT22;4452;50.756;4.472;2024-02-21T12:26:54;9.90;99.90
8832;DHT22;4452;50.756;4.472;2024-02-21T12:29:22;9.90;99.90
8832;DHT22;4452;50.756;4.472;2024-02-21T12:31:50;10.00;99.90
8832;DHT22;4452;50.756;4.472;2024-02-21T12:34:16;10.00;99.90
8832;DHT22;4452;50.756;4.472;2024-02-21T12:36:43;10.10;99.90
8832;DHT22;4452;50.756;4.472;2024-02-21T12:39:09;10.10;99.90
8832;DHT22;4452;50.756;4.472;2024-02-21T12:41:36;10.10;99.90
8832;DHT22;4452;50.756;4.472;2024-02-21T12:44:04;10.20;99.90
8832;DHT22;4452;50.756;4.472;2024-02-21T12:46:33;10.20;99.90
8832;DHT22;4452;50.756;4.472;2024-02-21T12:48:58;10.30;99.90
8832;DHT22;4452;50.756;4.472;2024-02-21T12:51:24;10.20;99.90
8832;DHT22;4452;50.756;4.472;2024-02-21T12:53:50;10.10;99.90
8832;DHT22;4452;50.756;4.472;2024-02-21T12:56:16;10.10;99.90
8832;DHT22;4452;50.756;4.472;2024-02-21T12:58:42;10.50;99.90
8832;DHT22;4452;50.756;4.472;2024-02-21T13:01:08;10.20;99.90
8832;DHT22;4452;50.756;4.472;2024-02-21T13:03:34;10.50;99.90
8832;DHT22;4452;50.756;4.472;2024-02-21T13:06:00;10.20;99.90
8832;DHT22;4452;50.756;4.472;2024-02-21T13:08:25;10.50;99.90
8832;DHT22;4452;50.756;4.472;2024-02-21T13:10:51;10.20;99.90
8832;DHT22;4452;50.756;4.472;2024-02-21T13:13:17;10.20;99.90
8832;DHT22;4452;50.756;4.472;2024-02-21T13:15:44;10.20;99.90
8832;DHT22;4452;50.756;4.472;2024-02-21T13:18:09;10.30;99.90
8832;DHT22;4452;50.756;4.472;2024-02-21T13:20:36;10.20;99.90
8832;DHT22;4452;50.756;4.472;2024-02-21T13:23:02;10.10;99.90
8832;DHT22;4452;50.756;4.472;2024-02-21T13:25:28;10.10;99.90
8832;DHT22;4452;50.756;4.472;2024-02-21T13:27:57;10.10;99.90
8832;DHT22;4452;50.756;4.472;2024-02-21T13:30:24;10.10;99.90
8832;DHT22;4452;50.756;4.472;2024-02-21T13:32:52;10.10;99.90
8832;DHT22;4452;50.756;4.472;2024-02-21T13:35:22;10.10;99.90
8832;DHT22;4452;50.756;4.472;2024-02-21T13:37:50;10.10;99.90
8832;DHT22;4452;50.756;4.472;2024-02-21T13:40:18;10.10;99.90
8832;DHT22;4452;50.756;4.472;2024-02-21T13:42:46;10.00;99.90
8832;DHT22;4452;50.756;4.472;2024-02-21T13:45:16;10.00;99.90
8832;DHT22;4452;50.756;4.472;2024-02-21T13:47:43;10.00;99.90
8832;DHT22;4452;50.756;4.472;2024-02-21T13:50:11;10.00;99.90
8832;DHT22;4452;50.756;4.472;2024-02-21T13:52:42;9.90;99.90
8832;DHT22;4452;50.756;4.472;2024-02-21T13:55:10;10.00;99.90
8832;DHT22;4452;50.756;4.472;2024-02-21T13:57:38;10.00;99.90
8832;DHT22;4452;50.756;4.472;2024-02-21T14:00:06;9.90;99.90
8832;DHT22;4452;50.756;4.472;2024-02-21T14:02:37;9.90;99.90
8832;DHT22;4452;50.756;4.472;2024-02-21T14:05:03;9.90;99.90
8832;DHT22;4452;50.756;4.472;2024-02-21T14:07:32;9.80;99.90
8832;DHT22;4452;50.756;4.472;2024-02-21T14:09:58;9.80;99.90
8832;DHT22;4452;50.756;4.472;2024-02-21T14:12:24;9.80;99.90
8832;DHT22;4452;50.756;4.472;2024-02-21T14:14:50;9.70;99.90
8832;DHT22;4452;50.756;4.472;2024-02-21T14:17:16;9.60;99.90
8832;DHT22;4452;50.756;4.472;2024-02-21T14:19:42;9.70;99.90
8832;DHT22;4452;50.756;4.472;2024-02-21T14:22:11;9.60;99.90
8832;DHT22;4452;50.756;4.472;2024-02-21T14:24:38;9.50;99.90
8832;DHT22;4452;50.756;4.472;2024-02-21T14:27:05;9.50;99.90
8832;DHT22;4452;50.756;4.472;2024-02-21T14:29:35;9.50;99.90
8832;DHT22;4452;50.756;4.472;2024-02-21T14:32:05;9.40;99.90
8832;DHT22;4452;50.756;4.472;2024-02-21T14:34:36;9.40;99.90
8832;DHT22;4452;50.756;4.472;2024-02-21T14:37:01;9.30;99.90
8832;DHT22;4452;50.756;4.472;2024-02-21T14:39:27;9.30;99.90
8832;DHT22;4452;50.756;4.472;2024-02-21T14:41:54;9.30;99.90
8832;DHT22;4452;50.756;4.472;2024-02-21T14:44:20;9.30;99.90
8832;DHT22;4452;50.756;4.472;2024-02-21T14:46:45;9.60;99.90
8832;DHT22;4452;50.756;4.472;2024-02-21T14:49:11;9.20;99.90
8832;DHT22;4452;50.756;4.472;2024-02-21T14:51:37;9.40;99.90
8832;DHT22;4452;50.756;4.472;2024-02-21T14:54:02;9.20;99.90
8832;DHT22;4452;50.756;4.472;2024-02-21T14:56:28;9.20;99.90
8832;DHT22;4452;50.756;4.472;2024-02-21T14:58:54;9.20;99.90
8832;DHT22;4452;50.756;4.472;2024-02-21T15:01:20;9.20;99.90
8832;DHT22;4452;50.756;4.472;2024-02-21T15:03:45;9.10;99.90
8832;DHT22;4452;50.756;4.472;2024-02-21T15:06:11;9.10;99.90
8832;DHT22;4452;50.756;4.472;2024-02-21T15:08:37;9.60;99.90
8832;DHT22;4452;50.756;4.472;2024-02-21T15:11:03;9.20;99.90
8832;DHT22;4452;50.756;4.472;2024-02-21T15:13:30;9.00;99.90
8832;DHT22;4452;50.756;4.472;2024-02-21T15:15:58;9.00;99.90
8832;DHT22;4452;50.756;4.472;2024-02-21T15:18:26;9.00;99.90
8832;DHT22;4452;50.756;4.472;2024-02-21T15:20:54;9.00;99.90
8832;DHT22;4452;50.756;4.472;2024-02-21T15:23:22;9.00;99.90
8832;DHT22;4452;50.756;4.472;2024-02-21T15:25:51;9.00;99.90
8832;DHT22;4452;50.756;4.472;2024-02-21T15:28:20;8.90;99.90
8832;DHT22;4452;50.756;4.472;2024-02-21T15:30:49;8.90;99.90
8832;DHT22;4452;50.756;4.472;2024-02-21T15:33:17;8.80;99.90
8832;DHT22;4452;50.756;4.472;2024-02-21T15:35:45;8.90;99.90
8832;DHT22;4452;50.756;4.472;2024-02-21T15:38:15;8.80;99.90
8832;DHT22;4452;50.756;4.472;2024-02-21T15:40:44;8.80;99.90
8832;DHT22;4452;50.756;4.472;2024-02-21T15:43:12;8.80;99.90
8832;DHT22;4452;50.756;4.472;2024-02-21T15:45:39;8.80;99.90
8832;DHT22;4452;50.756;4.472;2024-02-21T15:48:07;8.70;99.90
8832;DHT22;4452;50.756;4.472;2024-02-21T15:50:35;8.70;99.90
8832;DHT22;4452;50.756;4.472;2024-02-21T15:53:06;8.70;99.90
8832;DHT22;4452;50.756;4.472;2024-02-21T15:55:35;8.70;99.90
8832;DHT22;4452;50.756;4.472;2024-02-21T15:58:03;8.70;99.90
8832;DHT22;4452;50.756;4.472;2024-02-21T16:00:29;8.60;99.90
8832;DHT22;4452;50.756;4.472;2024-02-21T16:02:57;8.60;99.90
8832;DHT22;4452;50.756;4.472;2024-02-21T16:05:23;8.60;99.90
8832;DHT22;4452;50.756;4.472;2024-02-21T16:07:48;8.60;99.90
8832;DHT22;4452;50.756;4.472;2024-02-21T16:10:14;8.60;99.90
8832;DHT22;4452;50.756;4.472;2024-02-21T16:12:40;8.60;99.90
8832;DHT22;4452;50.756;4.472;2024-02-21T16:15:08;8.40;99.90
8832;DHT22;4452;50.756;4.472;2024-02-21T16:17:33;8.60;99.90
8832;DHT22;4452;50.756;4.472;2024-02-21T16:19:59;8.50;99.90
8832;DHT22;4452;50.756;4.472;2024-02-21T16:22:26;8.80;99.90
8832;DHT22;4452;50.756;4.472;2024-02-21T16:24:52;8.30;99.90